sensor_id;sensor_type;location;lat;lon;timestamp;P1;durP1;ratioP1;P2;durP2;ratioP2
77598;SDS011;66758;52.078;5.070;2023-05-19T00:00:18;8.32;;;4.10;;
77598;SDS011;66758;52.078;5.070;2023-05-19T00:02:44;13.60;;;4.40;;
77598;SDS011;66758;52.078;5.070;2023-05-19T00:05:10;8.50;;;3.90;;
77598;SDS011;66758;52.078;5.070;2023-05-19T00:07:39;10.27;;;3.97;;
77598;SDS011;66758;52.078;5.070;2023-05-19T00:10:06;13.32;;;4.45;;
77598;SDS011;66758;52.078;5.070;2023-05-19T00:12:32;10.10;;;4.47;;
77598;SDS011;66758;52.078;5.070;2023-05-19T00:14:58;10.70;;;4.47;;
77598;SDS011;66758;52.078;5.070;2023-05-19T00:17:24;10.73;;;4.37;;
77598;SDS011;66758;52.078;5.070;2023-05-19T00:19:50;13.50;;;4.50;;
77598;SDS011;66758;52.078;5.070;2023-05-19T00:22:16;14.10;;;5.07;;
77598;SDS011;66758;52.078;5.070;2023-05-19T00:24:41;13.73;;;4.77;;
77598;SDS011;66758;52.078;5.070;2023-05-19T00:27:07;13.90;;;4.90;;
77598;SDS011;66758;52.078;5.070;2023-05-19T00:29:32;12.33;;;5.20;;
77598;SDS011;66758;52.078;5.070;2023-05-19T00:31:57;11.30;;;4.80;;
77598;SDS011;66758;52.078;5.070;2023-05-19T00:34:23;12.63;;;5.27;;
77598;SDS011;66758;52.078;5.070;2023-05-19T00:36:48;11.20;;;4.50;;
77598;SDS011;66758;52.078;5.070;2023-05-19T00:39:14;13.98;;;4.28;;
77598;SDS011;66758;52.078;5.070;2023-05-19T00:41:40;14.67;;;4.30;;
77598;SDS011;66758;52.078;5.070;2023-05-19T00:44:05;10.70;;;4.53;;
77598;SDS011;66758;52.078;5.070;2023-05-19T00:46:31;9.63;;;4.22;;
77598;SDS011;66758;52.078;5.070;2023-05-19T00:48:57;11.83;;;4.40;;
77598;SDS011;66758;52.078;5.070;2023-05-19T00:51:23;9.50;;;4.15;;
77598;SDS011;66758;52.078;5.070;2023-05-19T00:53:50;18.58;;;5.03;;
77598;SDS011;66758;52.078;5.070;2023-05-19T00:56:16;10.97;;;4.20;;
77598;SDS011;66758;52.078;5.070;2023-05-19T00:58:43;10.55;;;4.03;;
77598;SDS011;66758;52.078;5.070;2023-05-19T01:01:09;11.15;;;4.05;;
77598;SDS011;66758;52.078;5.070;2023-05-19T01:03:38;13.50;;;4.50;;
77598;SDS011;66758;52.078;5.070;2023-05-19T01:06:04;9.63;;;4.20;;
77598;SDS011;66758;52.078;5.070;2023-05-19T01:08:31;13.10;;;4.60;;
77598;SDS011;66758;52.078;5.070;2023-05-19T01:10:58;10.23;;;4.40;;
77598;SDS011;66758;52.078;5.070;2023-05-19T01:13:23;14.75;;;4.75;;
77598;SDS011;66758;52.078;5.070;2023-05-19T01:18:17;8.85;;;4.07;;
77598;SDS011;66758;52.078;5.070;2023-05-19T01:20:50;11.33;;;4.67;;
77598;SDS011;66758;52.078;5.070;2023-05-19T01:31:41;10.50;;;4.72;;
77598;SDS011;66758;52.078;5.070;2023-05-19T01:34:09;10.80;;;3.80;;
77598;SDS011;66758;52.078;5.070;2023-05-19T01:36:38;12.80;;;5.50;;
77598;SDS011;66758;52.078;5.070;2023-05-19T01:39:08;9.68;;;4.80;;
77598;SDS011;66758;52.078;5.070;2023-05-19T01:41:34;8.50;;;4.20;;
77598;SDS011;66758;52.078;5.070;2023-05-19T01:44:01;10.85;;;4.95;;
77598;SDS011;66758;52.078;5.070;2023-05-19T01:46:26;10.43;;;4.73;;
77598;SDS011;66758;52.078;5.070;2023-05-19T01:48:52;10.87;;;4.80;;
77598;SDS011;66758;52.078;5.070;2023-05-19T01:51:17;11.00;;;4.55;;
77598;SDS011;66758;52.078;5.070;2023-05-19T01:53:43;12.23;;;4.93;;
77598;SDS011;66758;52.078;5.070;2023-05-19T01:56:08;9.20;;;4.23;;
77598;SDS011;66758;52.078;5.070;2023-05-19T01:58:44;11.15;;;4.97;;
77598;SDS011;66758;52.078;5.070;2023-05-19T02:15:14;14.27;;;5.17;;
77598;SDS011;66758;52.078;5.070;2023-05-19T02:17:41;12.48;;;5.53;;
77598;SDS011;66758;52.078;5.070;2023-05-19T02:20:11;13.63;;;5.60;;
77598;SDS011;66758;52.078;5.070;2023-05-19T02:22:37;11.15;;;5.10;;
77598;SDS011;66758;52.078;5.070;2023-05-19T02:25:03;12.17;;;5.47;;
77598;SDS011;66758;52.078;5.070;2023-05-19T02:27:28;12.80;;;5.20;;
77598;SDS011;66758;52.078;5.070;2023-05-19T02:29:54;14.45;;;5.45;;
77598;SDS011;66758;52.078;5.070;2023-05-19T02:32:20;9.77;;;5.47;;
77598;SDS011;66758;52.078;5.070;2023-05-19T02:34:46;16.90;;;5.33;;
77598;SDS011;66758;52.078;5.070;2023-05-19T02:37:13;16.05;;;5.85;;
77598;SDS011;66758;52.078;5.070;2023-05-19T02:39:40;12.80;;;5.65;;
77598;SDS011;66758;52.078;5.070;2023-05-19T02:42:06;14.63;;;5.63;;
77598;SDS011;66758;52.078;5.070;2023-05-19T02:44:31;10.57;;;5.50;;
77598;SDS011;66758;52.078;5.070;2023-05-19T02:46:57;13.37;;;5.93;;
77598;SDS011;66758;52.078;5.070;2023-05-19T02:49:22;11.73;;;5.65;;
77598;SDS011;66758;52.078;5.070;2023-05-19T02:51:48;14.10;;;5.20;;
77598;SDS011;66758;52.078;5.070;2023-05-19T02:54:13;17.20;;;5.47;;
77598;SDS011;66758;52.078;5.070;2023-05-19T02:56:39;12.45;;;5.22;;
77598;SDS011;66758;52.078;5.070;2023-05-19T02:59:04;15.17;;;5.47;;
77598;SDS011;66758;52.078;5.070;2023-05-19T03:01:30;9.93;;;5.60;;
77598;SDS011;66758;52.078;5.070;2023-05-19T03:03:56;10.63;;;5.75;;
77598;SDS011;66758;52.078;5.070;2023-05-19T03:06:22;14.85;;;5.93;;
77598;SDS011;66758;52.078;5.070;2023-05-19T03:08:48;12.10;;;5.60;;
77598;SDS011;66758;52.078;5.070;2023-05-19T03:11:14;13.65;;;6.28;;
77598;SDS011;66758;52.078;5.070;2023-05-19T03:13:40;19.67;;;6.33;;
77598;SDS011;66758;52.078;5.070;2023-05-19T03:16:05;15.30;;;5.93;;
77598;SDS011;66758;52.078;5.070;2023-05-19T03:18:32;16.30;;;6.47;;
77598;SDS011;66758;52.078;5.070;2023-05-19T03:21:01;12.35;;;5.85;;
77598;SDS011;66758;52.078;5.070;2023-05-19T03:23:26;16.00;;;6.47;;
77598;SDS011;66758;52.078;5.070;2023-05-19T03:25:53;16.77;;;6.37;;
77598;SDS011;66758;52.078;5.070;2023-05-19T03:28:19;18.38;;;5.90;;
77598;SDS011;66758;52.078;5.070;2023-05-19T03:30:45;14.53;;;5.50;;
77598;SDS011;66758;52.078;5.070;2023-05-19T03:33:14;11.48;;;6.15;;
77598;SDS011;66758;52.078;5.070;2023-05-19T03:35:40;16.73;;;6.18;;
77598;SDS011;66758;52.078;5.070;2023-05-19T03:38:05;11.73;;;6.63;;
77598;SDS011;66758;52.078;5.070;2023-05-19T03:40:31;15.73;;;6.80;;
77598;SDS011;66758;52.078;5.070;2023-05-19T03:42:56;13.67;;;6.40;;
77598;SDS011;66758;52.078;5.070;2023-05-19T03:45:22;12.47;;;6.03;;
77598;SDS011;66758;52.078;5.070;2023-05-19T03:47:47;13.10;;;6.13;;
77598;SDS011;66758;52.078;5.070;2023-05-19T03:50:13;19.70;;;6.63;;
77598;SDS011;66758;52.078;5.070;2023-05-19T03:52:38;20.13;;;6.77;;
77598;SDS011;66758;52.078;5.070;2023-05-19T03:55:04;14.52;;;5.82;;
77598;SDS011;66758;52.078;5.070;2023-05-19T03:57:31;18.23;;;6.47;;
77598;SDS011;66758;52.078;5.070;2023-05-19T03:59:57;15.87;;;6.37;;
77598;SDS011;66758;52.078;5.070;2023-05-19T04:02:23;14.60;;;6.15;;
77598;SDS011;66758;52.078;5.070;2023-05-19T04:04:49;15.35;;;6.53;;
77598;SDS011;66758;52.078;5.070;2023-05-19T04:07:15;13.07;;;6.90;;
77598;SDS011;66758;52.078;5.070;2023-05-19T04:09:40;18.60;;;6.82;;
77598;SDS011;66758;52.078;5.070;2023-05-19T04:12:06;18.63;;;6.50;;
77598;SDS011;66758;52.078;5.070;2023-05-19T04:14:31;18.30;;;6.33;;
77598;SDS011;66758;52.078;5.070;2023-05-19T04:16:57;17.43;;;6.83;;
77598;SDS011;66758;52.078;5.070;2023-05-19T04:19:22;17.23;;;6.90;;
77598;SDS011;66758;52.078;5.070;2023-05-19T04:21:48;13.50;;;6.57;;
77598;SDS011;66758;52.078;5.070;2023-05-19T04:24:13;11.83;;;6.00;;
77598;SDS011;66758;52.078;5.070;2023-05-19T04:26:39;15.13;;;6.73;;
77598;SDS011;66758;52.078;5.070;2023-05-19T04:29:09;15.43;;;6.38;;
77598;SDS011;66758;52.078;5.070;2023-05-19T04:31:38;15.20;;;5.90;;
77598;SDS011;66758;52.078;5.070;2023-05-19T04:34:06;20.58;;;7.25;;
77598;SDS011;66758;52.078;5.070;2023-05-19T04:36:32;17.33;;;6.77;;
77598;SDS011;66758;52.078;5.070;2023-05-19T04:38:58;17.95;;;6.85;;
77598;SDS011;66758;52.078;5.070;2023-05-19T04:41:31;13.30;;;5.97;;
77598;SDS011;66758;52.078;5.070;2023-05-19T04:43:58;14.73;;;6.63;;
77598;SDS011;66758;52.078;5.070;2023-05-19T04:46:23;15.20;;;6.50;;
77598;SDS011;66758;52.078;5.070;2023-05-19T04:48:50;15.88;;;6.55;;
77598;SDS011;66758;52.078;5.070;2023-05-19T04:51:17;15.67;;;5.97;;
77598;SDS011;66758;52.078;5.070;2023-05-19T04:53:43;12.48;;;5.70;;
77598;SDS011;66758;52.078;5.070;2023-05-19T04:56:09;13.02;;;6.15;;
77598;SDS011;66758;52.078;5.070;2023-05-19T04:58:39;13.60;;;6.27;;
77598;SDS011;66758;52.078;5.070;2023-05-19T05:01:05;13.73;;;5.70;;
77598;SDS011;66758;52.078;5.070;2023-05-19T05:03:31;16.13;;;5.97;;
77598;SDS011;66758;52.078;5.070;2023-05-19T05:05:58;10.05;;;5.68;;
77598;SDS011;66758;52.078;5.070;2023-05-19T05:08:24;17.20;;;7.13;;
77598;SDS011;66758;52.078;5.070;2023-05-19T05:10:50;12.82;;;6.70;;
77598;SDS011;66758;52.078;5.070;2023-05-19T05:13:21;11.60;;;5.80;;
77598;SDS011;66758;52.078;5.070;2023-05-19T05:15:47;9.55;;;5.43;;
77598;SDS011;66758;52.078;5.070;2023-05-19T05:18:13;14.07;;;6.40;;
77598;SDS011;66758;52.078;5.070;2023-05-19T05:20:40;12.93;;;6.43;;
77598;SDS011;66758;52.078;5.070;2023-05-19T05:23:09;12.02;;;6.68;;
77598;SDS011;66758;52.078;5.070;2023-05-19T05:25:38;19.30;;;6.83;;
77598;SDS011;66758;52.078;5.070;2023-05-19T05:28:05;12.50;;;6.32;;
77598;SDS011;66758;52.078;5.070;2023-05-19T05:30:30;13.67;;;6.60;;
77598;SDS011;66758;52.078;5.070;2023-05-19T05:32:57;12.13;;;5.97;;
77598;SDS011;66758;52.078;5.070;2023-05-19T05:35:23;14.48;;;5.95;;
77598;SDS011;66758;52.078;5.070;2023-05-19T05:37:48;12.50;;;5.97;;
77598;SDS011;66758;52.078;5.070;2023-05-19T05:40:14;15.30;;;5.87;;
77598;SDS011;66758;52.078;5.070;2023-05-19T05:42:40;13.98;;;6.57;;
77598;SDS011;66758;52.078;5.070;2023-05-19T05:45:06;11.77;;;5.83;;
77598;SDS011;66758;52.078;5.070;2023-05-19T05:47:31;13.50;;;6.10;;
77598;SDS011;66758;52.078;5.070;2023-05-19T05:49:57;12.45;;;6.20;;
77598;SDS011;66758;52.078;5.070;2023-05-19T05:52:23;10.37;;;5.77;;
77598;SDS011;66758;52.078;5.070;2023-05-19T05:54:54;13.98;;;6.40;;
77598;SDS011;66758;52.078;5.070;2023-05-19T05:57:20;11.73;;;6.03;;
77598;SDS011;66758;52.078;5.070;2023-05-19T05:59:45;14.43;;;6.53;;
77598;SDS011;66758;52.078;5.070;2023-05-19T06:02:12;11.32;;;5.25;;
77598;SDS011;66758;52.078;5.070;2023-05-19T06:04:37;15.23;;;6.37;;
77598;SDS011;66758;52.078;5.070;2023-05-19T06:07:03;11.98;;;5.45;;
77598;SDS011;66758;52.078;5.070;2023-05-19T06:09:29;9.02;;;5.90;;
77598;SDS011;66758;52.078;5.070;2023-05-19T06:11:56;10.07;;;5.43;;
77598;SDS011;66758;52.078;5.070;2023-05-19T06:14:22;15.20;;;5.82;;
77598;SDS011;66758;52.078;5.070;2023-05-19T06:16:47;16.70;;;5.60;;
77598;SDS011;66758;52.078;5.070;2023-05-19T06:19:13;12.57;;;5.03;;
77598;SDS011;66758;52.078;5.070;2023-05-19T06:21:38;13.32;;;5.47;;
77598;SDS011;66758;52.078;5.070;2023-05-19T06:24:06;12.13;;;5.30;;
77598;SDS011;66758;52.078;5.070;2023-05-19T06:26:32;13.63;;;5.53;;
77598;SDS011;66758;52.078;5.070;2023-05-19T06:28:57;10.10;;;5.07;;
77598;SDS011;66758;52.078;5.070;2023-05-19T06:31:23;12.33;;;5.60;;
77598;SDS011;66758;52.078;5.070;2023-05-19T06:33:50;9.63;;;4.60;;
77598;SDS011;66758;52.078;5.070;2023-05-19T06:36:16;13.48;;;4.70;;
77598;SDS011;66758;52.078;5.070;2023-05-19T06:38:41;12.03;;;4.80;;
77598;SDS011;66758;52.078;5.070;2023-05-19T06:41:07;12.10;;;4.93;;
77598;SDS011;66758;52.078;5.070;2023-05-19T06:43:32;8.93;;;3.95;;
77598;SDS011;66758;52.078;5.070;2023-05-19T06:45:58;9.10;;;4.50;;
77598;SDS011;66758;52.078;5.070;2023-05-19T06:48:23;10.77;;;4.50;;
77598;SDS011;66758;52.078;5.070;2023-05-19T06:50:49;8.48;;;5.05;;
77598;SDS011;66758;52.078;5.070;2023-05-19T06:53:15;10.53;;;4.80;;
77598;SDS011;66758;52.078;5.070;2023-05-19T06:55:41;9.40;;;4.63;;
77598;SDS011;66758;52.078;5.070;2023-05-19T06:58:06;11.33;;;5.23;;
77598;SDS011;66758;52.078;5.070;2023-05-19T07:00:32;8.67;;;4.20;;
77598;SDS011;66758;52.078;5.070;2023-05-19T07:02:57;9.70;;;4.32;;
77598;SDS011;66758;52.078;5.070;2023-05-19T07:05:24;9.37;;;4.67;;
77598;SDS011;66758;52.078;5.070;2023-05-19T07:07:50;10.55;;;3.90;;
77598;SDS011;66758;52.078;5.070;2023-05-19T07:10:16;8.73;;;4.30;;
77598;SDS011;66758;52.078;5.070;2023-05-19T07:12:41;8.53;;;3.67;;
77598;SDS011;66758;52.078;5.070;2023-05-19T07:15:07;9.23;;;3.90;;
77598;SDS011;66758;52.078;5.070;2023-05-19T07:17:33;12.33;;;4.60;;
77598;SDS011;66758;52.078;5.070;2023-05-19T07:19:58;12.50;;;4.30;;
77598;SDS011;66758;52.078;5.070;2023-05-19T07:22:25;10.13;;;3.72;;
77598;SDS011;66758;52.078;5.070;2023-05-19T07:24:50;8.10;;;3.75;;
77598;SDS011;66758;52.078;5.070;2023-05-19T07:27:16;10.03;;;4.10;;
77598;SDS011;66758;52.078;5.070;2023-05-19T07:29:42;10.67;;;4.73;;
77598;SDS011;66758;52.078;5.070;2023-05-19T07:32:07;8.43;;;3.58;;
77598;SDS011;66758;52.078;5.070;2023-05-19T07:34:33;7.63;;;3.10;;
77598;SDS011;66758;52.078;5.070;2023-05-19T07:36:58;11.20;;;4.17;;
77598;SDS011;66758;52.078;5.070;2023-05-19T07:39:24;9.18;;;4.13;;
77598;SDS011;66758;52.078;5.070;2023-05-19T07:41:53;9.85;;;3.53;;
77598;SDS011;66758;52.078;5.070;2023-05-19T07:44:20;6.33;;;3.43;;
77598;SDS011;66758;52.078;5.070;2023-05-19T07:46:47;9.05;;;4.32;;
77598;SDS011;66758;52.078;5.070;2023-05-19T07:49:12;8.82;;;3.42;;
77598;SDS011;66758;52.078;5.070;2023-05-19T07:51:38;8.60;;;3.50;;
77598;SDS011;66758;52.078;5.070;2023-05-19T07:54:05;12.13;;;3.85;;
77598;SDS011;66758;52.078;5.070;2023-05-19T07:56:32;9.13;;;3.87;;
77598;SDS011;66758;52.078;5.070;2023-05-19T07:58:57;8.20;;;3.63;;
77598;SDS011;66758;52.078;5.070;2023-05-19T08:01:23;8.20;;;3.87;;
77598;SDS011;66758;52.078;5.070;2023-05-19T08:03:48;10.03;;;3.90;;
77598;SDS011;66758;52.078;5.070;2023-05-19T08:06:14;7.60;;;2.87;;
77598;SDS011;66758;52.078;5.070;2023-05-19T08:08:39;10.63;;;3.58;;
77598;SDS011;66758;52.078;5.070;2023-05-19T08:11:06;9.48;;;3.85;;
77598;SDS011;66758;52.078;5.070;2023-05-19T08:13:31;7.63;;;3.60;;
77598;SDS011;66758;52.078;5.070;2023-05-19T08:15:58;10.07;;;3.65;;
77598;SDS011;66758;52.078;5.070;2023-05-19T08:18:27;9.57;;;3.80;;
77598;SDS011;66758;52.078;5.070;2023-05-19T08:20:53;8.95;;;3.40;;
77598;SDS011;66758;52.078;5.070;2023-05-19T08:23:18;7.15;;;3.75;;
77598;SDS011;66758;52.078;5.070;2023-05-19T08:25:44;9.20;;;3.53;;
77598;SDS011;66758;52.078;5.070;2023-05-19T08:28:09;8.83;;;4.20;;
77598;SDS011;66758;52.078;5.070;2023-05-19T08:30:35;9.27;;;4.38;;
77598;SDS011;66758;52.078;5.070;2023-05-19T08:33:01;11.30;;;4.27;;
77598;SDS011;66758;52.078;5.070;2023-05-19T08:35:26;7.73;;;3.33;;
77598;SDS011;66758;52.078;5.070;2023-05-19T08:37:52;7.63;;;2.70;;
77598;SDS011;66758;52.078;5.070;2023-05-19T08:40:18;8.50;;;2.60;;
77598;SDS011;66758;52.078;5.070;2023-05-19T08:42:44;9.30;;;2.93;;
77598;SDS011;66758;52.078;5.070;2023-05-19T08:45:10;7.10;;;3.03;;
77598;SDS011;66758;52.078;5.070;2023-05-19T08:47:36;8.07;;;3.30;;
77598;SDS011;66758;52.078;5.070;2023-05-19T08:50:05;11.23;;;6.50;;
77598;SDS011;66758;52.078;5.070;2023-05-19T08:52:41;9.30;;;3.30;;
77598;SDS011;66758;52.078;5.070;2023-05-19T08:57:51;7.85;;;2.63;;
77598;SDS011;66758;52.078;5.070;2023-05-19T09:00:17;8.82;;;3.20;;
77598;SDS011;66758;52.078;5.070;2023-05-19T09:02:44;8.53;;;3.00;;
77598;SDS011;66758;52.078;5.070;2023-05-19T09:05:14;8.05;;;2.97;;
77598;SDS011;66758;52.078;5.070;2023-05-19T09:07:42;5.80;;;2.30;;
77598;SDS011;66758;52.078;5.070;2023-05-19T09:10:08;5.72;;;2.40;;
77598;SDS011;66758;52.078;5.070;2023-05-19T09:12:39;5.35;;;2.10;;
77598;SDS011;66758;52.078;5.070;2023-05-19T09:15:06;8.00;;;3.00;;
77598;SDS011;66758;52.078;5.070;2023-05-19T09:17:33;6.45;;;3.10;;
77598;SDS011;66758;52.078;5.070;2023-05-19T09:20:01;8.15;;;1.98;;
77598;SDS011;66758;52.078;5.070;2023-05-19T09:22:29;4.40;;;1.77;;
77598;SDS011;66758;52.078;5.070;2023-05-19T09:24:55;6.05;;;2.20;;
77598;SDS011;66758;52.078;5.070;2023-05-19T09:27:21;6.87;;;2.00;;
77598;SDS011;66758;52.078;5.070;2023-05-19T09:29:48;6.07;;;2.40;;
77598;SDS011;66758;52.078;5.070;2023-05-19T09:32:23;6.30;;;2.22;;
77598;SDS011;66758;52.078;5.070;2023-05-19T09:34:51;6.33;;;1.83;;
77598;SDS011;66758;52.078;5.070;2023-05-19T09:37:21;7.88;;;2.13;;
77598;SDS011;66758;52.078;5.070;2023-05-19T09:39:48;6.85;;;2.50;;
77598;SDS011;66758;52.078;5.070;2023-05-19T09:42:16;8.30;;;2.40;;
77598;SDS011;66758;52.078;5.070;2023-05-19T09:45:00;9.73;;;2.78;;
77598;SDS011;66758;52.078;5.070;2023-05-19T09:47:26;6.87;;;2.37;;
77598;SDS011;66758;52.078;5.070;2023-05-19T09:49:52;7.63;;;3.65;;
77598;SDS011;66758;52.078;5.070;2023-05-19T09:52:17;7.80;;;2.47;;
77598;SDS011;66758;52.078;5.070;2023-05-19T09:54:43;8.68;;;2.13;;
77598;SDS011;66758;52.078;5.070;2023-05-19T09:57:09;6.63;;;2.43;;
77598;SDS011;66758;52.078;5.070;2023-05-19T09:59:34;5.77;;;2.53;;
77598;SDS011;66758;52.078;5.070;2023-05-19T10:02:03;4.47;;;2.28;;
77598;SDS011;66758;52.078;5.070;2023-05-19T10:04:29;7.43;;;2.30;;
77598;SDS011;66758;52.078;5.070;2023-05-19T10:06:55;6.38;;;2.10;;
77598;SDS011;66758;52.078;5.070;2023-05-19T10:09:27;9.32;;;1.98;;
77598;SDS011;66758;52.078;5.070;2023-05-19T10:11:54;8.10;;;3.10;;
77598;SDS011;66758;52.078;5.070;2023-05-19T10:14:23;5.90;;;2.50;;
77598;SDS011;66758;52.078;5.070;2023-05-19T10:17:01;7.23;;;2.90;;
77598;SDS011;66758;52.078;5.070;2023-05-19T10:19:27;6.65;;;2.53;;
77598;SDS011;66758;52.078;5.070;2023-05-19T10:21:53;4.77;;;2.70;;
77598;SDS011;66758;52.078;5.070;2023-05-19T10:24:19;8.07;;;2.53;;
77598;SDS011;66758;52.078;5.070;2023-05-19T10:26:48;6.18;;;2.25;;
77598;SDS011;66758;52.078;5.070;2023-05-19T10:29:25;7.68;;;3.15;;
77598;SDS011;66758;52.078;5.070;2023-05-19T10:32:06;6.45;;;3.00;;
77598;SDS011;66758;52.078;5.070;2023-05-19T10:40:27;6.53;;;2.78;;
77598;SDS011;66758;52.078;5.070;2023-05-19T10:46:00;5.18;;;2.22;;
77598;SDS011;66758;52.078;5.070;2023-05-19T10:48:26;6.43;;;2.60;;
77598;SDS011;66758;52.078;5.070;2023-05-19T10:50:59;6.70;;;2.80;;
77598;SDS011;66758;52.078;5.070;2023-05-19T10:53:29;7.60;;;2.70;;
77598;SDS011;66758;52.078;5.070;2023-05-19T10:55:56;5.83;;;2.17;;
77598;SDS011;66758;52.078;5.070;2023-05-19T11:01:14;7.78;;;2.60;;
77598;SDS011;66758;52.078;5.070;2023-05-19T11:03:47;9.80;;;2.97;;
77598;SDS011;66758;52.078;5.070;2023-05-19T11:06:24;7.97;;;3.03;;
77598;SDS011;66758;52.078;5.070;2023-05-19T11:08:56;7.10;;;2.40;;
77598;SDS011;66758;52.078;5.070;2023-05-19T11:11:26;4.22;;;2.53;;
77598;SDS011;66758;52.078;5.070;2023-05-19T11:14:08;8.73;;;3.10;;
77598;SDS011;66758;52.078;5.070;2023-05-19T11:16:35;5.95;;;2.90;;
77598;SDS011;66758;52.078;5.070;2023-05-19T11:19:01;9.07;;;2.97;;
77598;SDS011;66758;52.078;5.070;2023-05-19T11:21:49;5.82;;;2.38;;
77598;SDS011;66758;52.078;5.070;2023-05-19T11:27:20;5.43;;;3.03;;
77598;SDS011;66758;52.078;5.070;2023-05-19T11:29:46;7.28;;;2.63;;
77598;SDS011;66758;52.078;5.070;2023-05-19T11:32:13;5.77;;;2.70;;
77598;SDS011;66758;52.078;5.070;2023-05-19T11:34:39;6.72;;;3.22;;
77598;SDS011;66758;52.078;5.070;2023-05-19T11:37:06;5.57;;;2.60;;
77598;SDS011;66758;52.078;5.070;2023-05-19T11:39:33;7.78;;;2.88;;
77598;SDS011;66758;52.078;5.070;2023-05-19T11:41:59;7.27;;;2.80;;
77598;SDS011;66758;52.078;5.070;2023-05-19T11:44:24;7.90;;;2.70;;
77598;SDS011;66758;52.078;5.070;2023-05-19T11:46:52;6.90;;;2.30;;
77598;SDS011;66758;52.078;5.070;2023-05-19T11:49:18;6.83;;;2.87;;
77598;SDS011;66758;52.078;5.070;2023-05-19T11:51:44;5.43;;;2.55;;
77598;SDS011;66758;52.078;5.070;2023-05-19T11:54:10;7.30;;;2.70;;
77598;SDS011;66758;52.078;5.070;2023-05-19T11:56:42;6.68;;;2.95;;
77598;SDS011;66758;52.078;5.070;2023-05-19T11:59:08;6.18;;;2.95;;
77598;SDS011;66758;52.078;5.070;2023-05-19T12:01:34;7.50;;;3.38;;
77598;SDS011;66758;52.078;5.070;2023-05-19T12:04:00;8.32;;;2.95;;
77598;SDS011;66758;52.078;5.070;2023-05-19T12:06:29;7.17;;;3.00;;
77598;SDS011;66758;52.078;5.070;2023-05-19T12:08:55;9.82;;;3.28;;
77598;SDS011;66758;52.078;5.070;2023-05-19T12:11:20;6.22;;;3.20;;
77598;SDS011;66758;52.078;5.070;2023-05-19T12:13:47;5.03;;;2.40;;
77598;SDS011;66758;52.078;5.070;2023-05-19T12:16:15;8.20;;;2.85;;
77598;SDS011;66758;52.078;5.070;2023-05-19T12:18:44;8.82;;;3.45;;
77598;SDS011;66758;52.078;5.070;2023-05-19T12:21:09;6.03;;;3.10;;
77598;SDS011;66758;52.078;5.070;2023-05-19T12:23:36;5.43;;;3.25;;
77598;SDS011;66758;52.078;5.070;2023-05-19T12:26:02;9.02;;;3.05;;
77598;SDS011;66758;52.078;5.070;2023-05-19T12:28:28;6.68;;;3.20;;
77598;SDS011;66758;52.078;5.070;2023-05-19T12:30:55;6.63;;;3.27;;
77598;SDS011;66758;52.078;5.070;2023-05-19T12:33:22;8.73;;;3.00;;
77598;SDS011;66758;52.078;5.070;2023-05-19T12:35:48;5.53;;;3.15;;
77598;SDS011;66758;52.078;5.070;2023-05-19T12:38:14;4.85;;;2.50;;
77598;SDS011;66758;52.078;5.070;2023-05-19T12:40:40;7.70;;;3.33;;
77598;SDS011;66758;52.078;5.070;2023-05-19T12:43:07;8.05;;;3.30;;
77598;SDS011;66758;52.078;5.070;2023-05-19T12:45:36;5.85;;;3.10;;
77598;SDS011;66758;52.078;5.070;2023-05-19T12:48:13;6.32;;;2.75;;
77598;SDS011;66758;52.078;5.070;2023-05-19T12:50:39;5.85;;;2.78;;
77598;SDS011;66758;52.078;5.070;2023-05-19T12:53:12;6.20;;;3.10;;
77598;SDS011;66758;52.078;5.070;2023-05-19T12:55:41;6.13;;;3.05;;
77598;SDS011;66758;52.078;5.070;2023-05-19T12:58:08;5.70;;;2.65;;
77598;SDS011;66758;52.078;5.070;2023-05-19T13:00:38;5.73;;;2.37;;
77598;SDS011;66758;52.078;5.070;2023-05-19T13:03:06;4.93;;;2.40;;
77598;SDS011;66758;52.078;5.070;2023-05-19T13:05:37;5.25;;;2.60;;
77598;SDS011;66758;52.078;5.070;2023-05-19T13:08:07;8.13;;;3.10;;
77598;SDS011;66758;52.078;5.070;2023-05-19T13:10:35;9.43;;;3.42;;
77598;SDS011;66758;52.078;5.070;2023-05-19T13:13:01;7.70;;;3.03;;
77598;SDS011;66758;52.078;5.070;2023-05-19T13:15:28;11.70;;;3.63;;
77598;SDS011;66758;52.078;5.070;2023-05-19T13:18:02;6.50;;;3.40;;
77598;SDS011;66758;52.078;5.070;2023-05-19T13:20:30;7.50;;;3.25;;
77598;SDS011;66758;52.078;5.070;2023-05-19T13:22:55;5.80;;;3.30;;
77598;SDS011;66758;52.078;5.070;2023-05-19T13:25:21;9.37;;;2.70;;
77598;SDS011;66758;52.078;5.070;2023-05-19T13:27:47;6.77;;;3.23;;
77598;SDS011;66758;52.078;5.070;2023-05-19T13:30:13;8.52;;;3.03;;
77598;SDS011;66758;52.078;5.070;2023-05-19T13:32:41;29.75;;;4.60;;
77598;SDS011;66758;52.078;5.070;2023-05-19T13:35:07;10.75;;;3.50;;
77598;SDS011;66758;52.078;5.070;2023-05-19T13:37:33;8.30;;;3.47;;
77598;SDS011;66758;52.078;5.070;2023-05-19T13:39:59;9.90;;;3.10;;
77598;SDS011;66758;52.078;5.070;2023-05-19T13:42:24;9.47;;;4.00;;
77598;SDS011;66758;52.078;5.070;2023-05-19T13:44:53;6.45;;;2.90;;
77598;SDS011;66758;52.078;5.070;2023-05-19T13:47:20;8.60;;;3.63;;
77598;SDS011;66758;52.078;5.070;2023-05-19T13:49:46;7.40;;;3.35;;
77598;SDS011;66758;52.078;5.070;2023-05-19T13:52:12;25.33;;;4.73;;
77598;SDS011;66758;52.078;5.070;2023-05-19T13:54:38;9.73;;;2.88;;
77598;SDS011;66758;52.078;5.070;2023-05-19T13:57:04;6.50;;;3.20;;
77598;SDS011;66758;52.078;5.070;2023-05-19T13:59:30;9.73;;;3.30;;
77598;SDS011;66758;52.078;5.070;2023-05-19T14:01:56;8.25;;;3.53;;
77598;SDS011;66758;52.078;5.070;2023-05-19T14:04:21;6.53;;;2.80;;
77598;SDS011;66758;52.078;5.070;2023-05-19T14:06:48;7.05;;;2.97;;
77598;SDS011;66758;52.078;5.070;2023-05-19T14:09:14;7.30;;;3.00;;
77598;SDS011;66758;52.078;5.070;2023-05-19T14:11:40;6.57;;;3.30;;
77598;SDS011;66758;52.078;5.070;2023-05-19T14:14:06;7.55;;;3.70;;
77598;SDS011;66758;52.078;5.070;2023-05-19T14:16:32;7.50;;;3.33;;
77598;SDS011;66758;52.078;5.070;2023-05-19T14:18:57;6.93;;;3.43;;
77598;SDS011;66758;52.078;5.070;2023-05-19T14:21:23;8.27;;;3.47;;
77598;SDS011;66758;52.078;5.070;2023-05-19T14:23:49;7.00;;;3.03;;
77598;SDS011;66758;52.078;5.070;2023-05-19T14:26:15;8.00;;;3.30;;
77598;SDS011;66758;52.078;5.070;2023-05-19T14:28:40;6.77;;;2.90;;
77598;SDS011;66758;52.078;5.070;2023-05-19T14:31:12;8.05;;;3.35;;
77598;SDS011;66758;52.078;5.070;2023-05-19T14:33:39;4.97;;;3.27;;
77598;SDS011;66758;52.078;5.070;2023-05-19T14:36:05;7.70;;;3.20;;
77598;SDS011;66758;52.078;5.070;2023-05-19T14:38:31;8.80;;;3.38;;
77598;SDS011;66758;52.078;5.070;2023-05-19T14:40:57;7.60;;;3.60;;
77598;SDS011;66758;52.078;5.070;2023-05-19T14:43:22;9.63;;;2.93;;
77598;SDS011;66758;52.078;5.070;2023-05-19T14:45:48;6.60;;;3.38;;
77598;SDS011;66758;52.078;5.070;2023-05-19T14:48:13;10.97;;;3.63;;
77598;SDS011;66758;52.078;5.070;2023-05-19T14:50:39;6.60;;;3.20;;
77598;SDS011;66758;52.078;5.070;2023-05-19T14:53:05;10.02;;;3.10;;
77598;SDS011;66758;52.078;5.070;2023-05-19T14:55:30;5.27;;;2.60;;
77598;SDS011;66758;52.078;5.070;2023-05-19T14:57:56;5.97;;;3.13;;
77598;SDS011;66758;52.078;5.070;2023-05-19T15:00:21;8.17;;;2.77;;
77598;SDS011;66758;52.078;5.070;2023-05-19T15:02:50;6.72;;;2.95;;
77598;SDS011;66758;52.078;5.070;2023-05-19T15:05:16;8.52;;;3.10;;
77598;SDS011;66758;52.078;5.070;2023-05-19T15:07:41;7.17;;;2.80;;
77598;SDS011;66758;52.078;5.070;2023-05-19T15:10:06;6.87;;;2.97;;
77598;SDS011;66758;52.078;5.070;2023-05-19T15:12:32;6.72;;;2.80;;
77598;SDS011;66758;52.078;5.070;2023-05-19T15:14:58;5.60;;;2.87;;
77598;SDS011;66758;52.078;5.070;2023-05-19T15:17:23;5.78;;;2.63;;
77598;SDS011;66758;52.078;5.070;2023-05-19T15:19:49;9.17;;;3.03;;